sensor_id;sensor_type;location;lat;lon;timestamp;temperature;humidity
38183;DHT22;23991;52.430;10.586;2023-07-08T00:00:49;20.00;58.30
38183;DHT22;23991;52.430;10.586;2023-07-08T00:03:16;20.00;58.30
38183;DHT22;23991;52.430;10.586;2023-07-08T00:05:41;19.90;58.80
38183;DHT22;23991;52.430;10.586;2023-07-08T00:08:16;19.90;58.80
38183;DHT22;23991;52.430;10.586;2023-07-08T00:10:42;19.80;58.80
38183;DHT22;23991;52.430;10.586;2023-07-08T00:13:11;19.80;59.00
38183;DHT22;23991;52.430;10.586;2023-07-08T00:15:38;19.70;59.20
38183;DHT22;23991;52.430;10.586;2023-07-08T00:18:13;19.70;59.30
38183;DHT22;23991;52.430;10.586;2023-07-08T00:20:44;19.70;59.50
38183;DHT22;23991;52.430;10.586;2023-07-08T00:23:10;19.60;59.60
38183;DHT22;23991;52.430;10.586;2023-07-08T00:25:36;19.60;59.40
38183;DHT22;23991;52.430;10.586;2023-07-08T00:28:04;19.50;59.50
38183;DHT22;23991;52.430;10.586;2023-07-08T00:30:31;19.40;59.90
38183;DHT22;23991;52.430;10.586;2023-07-08T00:32:58;19.40;59.90
38183;DHT22;23991;52.430;10.586;2023-07-08T00:35:37;19.40;60.10
38183;DHT22;23991;52.430;10.586;2023-07-08T00:38:14;19.30;59.50
38183;DHT22;23991;52.430;10.586;2023-07-08T00:43:21;19.30;59.40
38183;DHT22;23991;52.430;10.586;2023-07-08T00:45:51;19.20;59.50
38183;DHT22;23991;52.430;10.586;2023-07-08T00:48:25;19.20;59.20
38183;DHT22;23991;52.430;10.586;2023-07-08T00:50:53;19.20;59.50
38183;DHT22;23991;52.430;10.586;2023-07-08T00:53:31;19.20;59.60
38183;DHT22;23991;52.430;10.586;2023-07-08T00:56:07;19.10;59.90
38183;DHT22;23991;52.430;10.586;2023-07-08T00:58:51;19.10;59.90
38183;DHT22;23991;52.430;10.586;2023-07-08T01:01:18;19.00;60.00
38183;DHT22;23991;52.430;10.586;2023-07-08T01:03:49;19.00;60.00
38183;DHT22;23991;52.430;10.586;2023-07-08T01:06:19;19.00;60.10
38183;DHT22;23991;52.430;10.586;2023-07-08T01:08:47;18.90;60.20
38183;DHT22;23991;52.430;10.586;2023-07-08T01:11:15;18.80;60.10
38183;DHT22;23991;52.430;10.586;2023-07-08T01:13:43;18.80;60.10
38183;DHT22;23991;52.430;10.586;2023-07-08T01:16:09;18.80;60.20
38183;DHT22;23991;52.430;10.586;2023-07-08T01:18:36;18.70;60.30
38183;DHT22;23991;52.430;10.586;2023-07-08T01:21:03;18.70;60.00
38183;DHT22;23991;52.430;10.586;2023-07-08T01:23:32;18.70;60.30
38183;DHT22;23991;52.430;10.586;2023-07-08T01:25:59;18.60;60.30
38183;DHT22;23991;52.430;10.586;2023-07-08T01:28:27;18.60;60.40
38183;DHT22;23991;52.430;10.586;2023-07-08T01:30:54;18.50;60.20
38183;DHT22;23991;52.430;10.586;2023-07-08T01:33:21;18.50;60.40
38183;DHT22;23991;52.430;10.586;2023-07-08T01:35:49;18.50;60.80
38183;DHT22;23991;52.430;10.586;2023-07-08T01:38:18;18.40;60.90
38183;DHT22;23991;52.430;10.586;2023-07-08T01:40:54;18.30;61.10
38183;DHT22;23991;52.430;10.586;2023-07-08T01:43:21;18.30;61.40
38183;DHT22;23991;52.430;10.586;2023-07-08T01:45:48;18.30;61.80
38183;DHT22;23991;52.430;10.586;2023-07-08T01:48:18;18.30;61.90
38183;DHT22;23991;52.430;10.586;2023-07-08T01:51:03;18.20;62.00
38183;DHT22;23991;52.430;10.586;2023-07-08T01:53:38;18.20;62.00
38183;DHT22;23991;52.430;10.586;2023-07-08T01:56:05;18.20;62.00
38183;DHT22;23991;52.430;10.586;2023-07-08T01:58:34;18.10;61.80
38183;DHT22;23991;52.430;10.586;2023-07-08T02:01:00;18.10;62.20
38183;DHT22;23991;52.430;10.586;2023-07-08T02:03:26;18.00;62.00
38183;DHT22;23991;52.430;10.586;2023-07-08T02:05:55;18.10;62.20
38183;DHT22;23991;52.430;10.586;2023-07-08T02:08:21;18.00;62.40
38183;DHT22;23991;52.430;10.586;2023-07-08T02:10:58;17.90;62.30
38183;DHT22;23991;52.430;10.586;2023-07-08T02:13:24;17.80;62.30
38183;DHT22;23991;52.430;10.586;2023-07-08T02:15:50;17.90;62.40
38183;DHT22;23991;52.430;10.586;2023-07-08T02:18:17;17.90;62.40
38183;DHT22;23991;52.430;10.586;2023-07-08T02:20:50;17.80;62.20
38183;DHT22;23991;52.430;10.586;2023-07-08T02:23:18;17.80;62.30
38183;DHT22;23991;52.430;10.586;2023-07-08T02:25:51;17.80;62.50
38183;DHT22;23991;52.430;10.586;2023-07-08T02:28:17;17.70;62.60
38183;DHT22;23991;52.430;10.586;2023-07-08T02:30:42;17.70;62.90
38183;DHT22;23991;52.430;10.586;2023-07-08T02:33:08;17.70;62.90
38183;DHT22;23991;52.430;10.586;2023-07-08T02:35:35;17.70;63.10
38183;DHT22;23991;52.430;10.586;2023-07-08T02:38:01;17.60;63.70
38183;DHT22;23991;52.430;10.586;2023-07-08T02:40:26;17.50;64.20
38183;DHT22;23991;52.430;10.586;2023-07-08T02:42:52;17.50;64.50
38183;DHT22;23991;52.430;10.586;2023-07-08T02:45:18;17.40;64.40
38183;DHT22;23991;52.430;10.586;2023-07-08T02:47:43;17.40;64.60
38183;DHT22;23991;52.430;10.586;2023-07-08T02:50:10;17.50;65.00
38183;DHT22;23991;52.430;10.586;2023-07-08T02:52:36;17.40;64.80
38183;DHT22;23991;52.430;10.586;2023-07-08T02:55:02;17.40;64.80
38183;DHT22;23991;52.430;10.586;2023-07-08T02:57:28;17.30;65.00
38183;DHT22;23991;52.430;10.586;2023-07-08T02:59:56;17.30;65.10
38183;DHT22;23991;52.430;10.586;2023-07-08T03:02:22;17.30;65.10
38183;DHT22;23991;52.430;10.586;2023-07-08T03:04:48;17.30;65.00
38183;DHT22;23991;52.430;10.586;2023-07-08T03:07:16;17.30;65.10
38183;DHT22;23991;52.430;10.586;2023-07-08T03:09:41;17.20;64.90
38183;DHT22;23991;52.430;10.586;2023-07-08T03:12:09;17.30;64.70
38183;DHT22;23991;52.430;10.586;2023-07-08T03:14:35;17.20;64.60
38183;DHT22;23991;52.430;10.586;2023-07-08T03:17:01;17.20;64.90
38183;DHT22;23991;52.430;10.586;2023-07-08T03:19:27;17.20;65.00
38183;DHT22;23991;52.430;10.586;2023-07-08T03:21:56;17.20;64.80
38183;DHT22;23991;52.430;10.586;2023-07-08T03:24:24;17.10;65.20
38183;DHT22;23991;52.430;10.586;2023-07-08T03:26:50;17.10;65.30
38183;DHT22;23991;52.430;10.586;2023-07-08T03:29:20;17.10;65.30
38183;DHT22;23991;52.430;10.586;2023-07-08T03:31:45;17.10;65.40
38183;DHT22;23991;52.430;10.586;2023-07-08T03:34:13;17.20;65.20
38183;DHT22;23991;52.430;10.586;2023-07-08T03:36:44;17.20;65.00
38183;DHT22;23991;52.430;10.586;2023-07-08T03:39:21;17.30;64.90
38183;DHT22;23991;52.430;10.586;2023-07-08T03:41:51;17.30;64.60
38183;DHT22;23991;52.430;10.586;2023-07-08T03:44:20;17.40;64.40
38183;DHT22;23991;52.430;10.586;2023-07-08T03:46:48;17.40;64.30
38183;DHT22;23991;52.430;10.586;2023-07-08T03:49:18;17.50;64.20
38183;DHT22;23991;52.430;10.586;2023-07-08T03:51:56;17.60;63.90
38183;DHT22;23991;52.430;10.586;2023-07-08T03:54:24;17.70;63.70
38183;DHT22;23991;52.430;10.586;2023-07-08T03:56:49;17.70;63.80
38183;DHT22;23991;52.430;10.586;2023-07-08T03:59:15;17.80;63.40
38183;DHT22;23991;52.430;10.586;2023-07-08T04:01:41;17.80;63.20
38183;DHT22;23991;52.430;10.586;2023-07-08T04:04:14;18.00;63.10
38183;DHT22;23991;52.430;10.586;2023-07-08T04:06:52;18.00;62.70
38183;DHT22;23991;52.430;10.586;2023-07-08T04:09:20;18.20;62.70
38183;DHT22;23991;52.430;10.586;2023-07-08T04:11:46;18.30;62.50
38183;DHT22;23991;52.430;10.586;2023-07-08T04:14:11;18.30;62.30
38183;DHT22;23991;52.430;10.586;2023-07-08T04:16:50;18.30;62.20
38183;DHT22;23991;52.430;10.586;2023-07-08T04:19:16;18.40;62.30
38183;DHT22;23991;52.430;10.586;2023-07-08T04:21:43;18.50;62.20
38183;DHT22;23991;52.430;10.586;2023-07-08T04:24:13;18.60;61.80
38183;DHT22;23991;52.430;10.586;2023-07-08T04:26:39;18.70;61.50
38183;DHT22;23991;52.430;10.586;2023-07-08T04:29:12;18.80;61.40
38183;DHT22;23991;52.430;10.586;2023-07-08T04:31:38;18.80;61.20
38183;DHT22;23991;52.430;10.586;2023-07-08T04:34:04;18.90;61.10
38183;DHT22;23991;52.430;10.586;2023-07-08T04:36:31;19.10;60.90
38183;DHT22;23991;52.430;10.586;2023-07-08T04:38:57;19.10;60.80
38183;DHT22;23991;52.430;10.586;2023-07-08T04:41:26;19.20;60.80
38183;DHT22;23991;52.430;10.586;2023-07-08T04:43:52;19.30;60.60
38183;DHT22;23991;52.430;10.586;2023-07-08T04:49:07;19.40;60.10
38183;DHT22;23991;52.430;10.586;2023-07-08T04:51:58;19.50;60.00
38183;DHT22;23991;52.430;10.586;2023-07-08T04:54:25;19.50;59.40
38183;DHT22;23991;52.430;10.586;2023-07-08T04:56:51;19.60;59.50
38183;DHT22;23991;52.430;10.586;2023-07-08T04:59:24;19.80;59.30
38183;DHT22;23991;52.430;10.586;2023-07-08T05:01:53;19.90;58.70
38183;DHT22;23991;52.430;10.586;2023-07-08T05:04:20;20.00;58.50
38183;DHT22;23991;52.430;10.586;2023-07-08T05:06:47;20.20;58.00
38183;DHT22;23991;52.430;10.586;2023-07-08T05:09:12;20.20;57.60
38183;DHT22;23991;52.430;10.586;2023-07-08T05:11:41;20.30;57.40
38183;DHT22;23991;52.430;10.586;2023-07-08T05:14:07;20.40;57.50
38183;DHT22;23991;52.430;10.586;2023-07-08T05:16:34;20.50;57.80
38183;DHT22;23991;52.430;10.586;2023-07-08T05:19:01;20.60;57.70
38183;DHT22;23991;52.430;10.586;2023-07-08T05:21:29;20.70;56.70
38183;DHT22;23991;52.430;10.586;2023-07-08T05:23:58;20.80;56.70
38183;DHT22;23991;52.430;10.586;2023-07-08T05:26:24;20.80;56.70
38183;DHT22;23991;52.430;10.586;2023-07-08T05:28:49;21.00;56.90
38183;DHT22;23991;52.430;10.586;2023-07-08T05:31:15;21.00;56.40
38183;DHT22;23991;52.430;10.586;2023-07-08T05:33:40;21.20;56.10
38183;DHT22;23991;52.430;10.586;2023-07-08T05:36:06;21.20;55.90
38183;DHT22;23991;52.430;10.586;2023-07-08T05:38:31;21.30;55.80
38183;DHT22;23991;52.430;10.586;2023-07-08T05:40:58;21.40;55.70
38183;DHT22;23991;52.430;10.586;2023-07-08T05:43:25;21.50;55.60
38183;DHT22;23991;52.430;10.586;2023-07-08T05:45:51;21.70;54.80
38183;DHT22;23991;52.430;10.586;2023-07-08T05:48:17;21.70;55.00
38183;DHT22;23991;52.430;10.586;2023-07-08T05:50:44;21.80;54.50
38183;DHT22;23991;52.430;10.586;2023-07-08T05:53:10;22.00;54.30
38183;DHT22;23991;52.430;10.586;2023-07-08T05:55:37;22.20;53.80
38183;DHT22;23991;52.430;10.586;2023-07-08T05:58:03;22.20;53.80
38183;DHT22;23991;52.430;10.586;2023-07-08T06:00:28;22.30;53.50
38183;DHT22;23991;52.430;10.586;2023-07-08T06:02:54;22.50;53.40
38183;DHT22;23991;52.430;10.586;2023-07-08T06:05:20;22.70;52.40
38183;DHT22;23991;52.430;10.586;2023-07-08T06:07:45;22.80;52.30
38183;DHT22;23991;52.430;10.586;2023-07-08T06:10:11;22.70;52.40
38183;DHT22;23991;52.430;10.586;2023-07-08T06:12:36;22.90;52.30
38183;DHT22;23991;52.430;10.586;2023-07-08T06:15:02;23.00;51.80
38183;DHT22;23991;52.430;10.586;2023-07-08T06:17:28;23.20;52.20
38183;DHT22;23991;52.430;10.586;2023-07-08T06:19:54;23.30;52.90
38183;DHT22;23991;52.430;10.586;2023-07-08T06:22:19;23.50;51.00
38183;DHT22;23991;52.430;10.586;2023-07-08T06:24:45;23.50;50.70
38183;DHT22;23991;52.430;10.586;2023-07-08T06:27:12;23.70;50.60
38183;DHT22;23991;52.430;10.586;2023-07-08T06:29:38;23.80;50.40
38183;DHT22;23991;52.430;10.586;2023-07-08T06:32:04;23.90;50.20
38183;DHT22;23991;52.430;10.586;2023-07-08T06:34:30;24.10;49.40
38183;DHT22;23991;52.430;10.586;2023-07-08T06:36:55;24.20;49.10
38183;DHT22;23991;52.430;10.586;2023-07-08T06:39:21;24.40;48.70
38183;DHT22;23991;52.430;10.586;2023-07-08T06:41:47;24.50;48.30
38183;DHT22;23991;52.430;10.586;2023-07-08T06:44:12;24.80;46.80
38183;DHT22;23991;52.430;10.586;2023-07-08T06:46:41;25.00;46.10
38183;DHT22;23991;52.430;10.586;2023-07-08T06:49:06;25.10;45.80
38183;DHT22;23991;52.430;10.586;2023-07-08T06:51:34;25.30;44.80
38183;DHT22;23991;52.430;10.586;2023-07-08T06:54:00;25.50;44.80
38183;DHT22;23991;52.430;10.586;2023-07-08T06:56:30;25.70;45.00
38183;DHT22;23991;52.430;10.586;2023-07-08T06:58:56;26.00;45.30
38183;DHT22;23991;52.430;10.586;2023-07-08T07:01:22;26.20;44.00
38183;DHT22;23991;52.430;10.586;2023-07-08T07:03:47;26.20;43.10
38183;DHT22;23991;52.430;10.586;2023-07-08T07:06:13;26.50;42.40
38183;DHT22;23991;52.430;10.586;2023-07-08T07:08:39;26.80;41.80
38183;DHT22;23991;52.430;10.586;2023-07-08T07:11:04;27.20;41.80
38183;DHT22;23991;52.430;10.586;2023-07-08T07:13:30;27.50;41.60
38183;DHT22;23991;52.430;10.586;2023-07-08T07:15:55;27.90;41.70
38183;DHT22;23991;52.430;10.586;2023-07-08T07:18:23;28.20;39.80
38183;DHT22;23991;52.430;10.586;2023-07-08T07:20:53;28.40;39.10
38183;DHT22;23991;52.430;10.586;2023-07-08T07:23:19;28.60;40.10
38183;DHT22;23991;52.430;10.586;2023-07-08T07:25:46;28.80;38.20
38183;DHT22;23991;52.430;10.586;2023-07-08T07:28:13;29.20;38.60
38183;DHT22;23991;52.430;10.586;2023-07-08T07:30:39;29.60;38.50
38183;DHT22;23991;52.430;10.586;2023-07-08T07:33:05;29.80;37.90
38183;DHT22;23991;52.430;10.586;2023-07-08T07:35:30;30.00;37.00
38183;DHT22;23991;52.430;10.586;2023-07-08T07:37:56;30.10;37.20
38183;DHT22;23991;52.430;10.586;2023-07-08T07:40:21;30.40;36.50
38183;DHT22;23991;52.430;10.586;2023-07-08T07:42:47;30.60;36.00
38183;DHT22;23991;52.430;10.586;2023-07-08T07:45:13;30.70;35.80
38183;DHT22;23991;52.430;10.586;2023-07-08T07:47:39;31.10;35.50
38183;DHT22;23991;52.430;10.586;2023-07-08T07:50:09;31.40;35.30
38183;DHT22;23991;52.430;10.586;2023-07-08T07:52:36;31.70;35.00
38183;DHT22;23991;52.430;10.586;2023-07-08T07:55:03;31.90;34.30
38183;DHT22;23991;52.430;10.586;2023-07-08T07:57:31;32.20;33.70
38183;DHT22;23991;52.430;10.586;2023-07-08T07:59:57;32.40;33.20
38183;DHT22;23991;52.430;10.586;2023-07-08T08:02:22;32.50;32.20
38183;DHT22;23991;52.430;10.586;2023-07-08T08:04:48;32.60;32.20
38183;DHT22;23991;52.430;10.586;2023-07-08T08:07:13;33.00;31.90
38183;DHT22;23991;52.430;10.586;2023-07-08T08:09:39;32.90;32.30
38183;DHT22;23991;52.430;10.586;2023-07-08T08:12:08;33.10;31.80
38183;DHT22;23991;52.430;10.586;2023-07-08T08:14:33;33.50;31.50
38183;DHT22;23991;52.430;10.586;2023-07-08T08:16:59;33.70;31.10
38183;DHT22;23991;52.430;10.586;2023-07-08T08:19:25;34.00;31.50
38183;DHT22;23991;52.430;10.586;2023-07-08T08:21:50;34.20;30.10
38183;DHT22;23991;52.430;10.586;2023-07-08T08:24:16;34.20;30.60
38183;DHT22;23991;52.430;10.586;2023-07-08T08:26:41;34.40;30.70
38183;DHT22;23991;52.430;10.586;2023-07-08T08:29:07;34.70;30.50
38183;DHT22;23991;52.430;10.586;2023-07-08T08:31:33;34.90;29.90
38183;DHT22;23991;52.430;10.586;2023-07-08T08:33:58;35.00;29.90
38183;DHT22;23991;52.430;10.586;2023-07-08T08:36:24;35.20;29.20
38183;DHT22;23991;52.430;10.586;2023-07-08T08:38:49;35.70;28.40
38183;DHT22;23991;52.430;10.586;2023-07-08T08:41:18;35.80;28.30
38183;DHT22;23991;52.430;10.586;2023-07-08T08:43:45;35.90;29.00
38183;DHT22;23991;52.430;10.586;2023-07-08T08:46:22;36.40;27.90
38183;DHT22;23991;52.430;10.586;2023-07-08T08:51:31;36.90;27.80
38183;DHT22;23991;52.430;10.586;2023-07-08T08:53:57;37.00;28.80
38183;DHT22;23991;52.430;10.586;2023-07-08T08:56:39;37.20;27.30
38183;DHT22;23991;52.430;10.586;2023-07-08T09:05:15;37.60;26.90
38183;DHT22;23991;52.430;10.586;2023-07-08T09:08:05;37.50;26.90
38183;DHT22;23991;52.430;10.586;2023-07-08T09:10:45;37.90;26.90
38183;DHT22;23991;52.430;10.586;2023-07-08T09:13:33;38.20;26.40
38183;DHT22;23991;52.430;10.586;2023-07-08T09:21:23;39.10;25.10
38183;DHT22;23991;52.430;10.586;2023-07-08T09:23:54;39.20;24.90
38183;DHT22;23991;52.430;10.586;2023-07-08T09:26:24;39.60;24.40
38183;DHT22;23991;52.430;10.586;2023-07-08T09:28:51;39.60;24.80
38183;DHT22;23991;52.430;10.586;2023-07-08T09:31:29;40.00;24.50
38183;DHT22;23991;52.430;10.586;2023-07-08T09:34:14;40.10;23.90
38183;DHT22;23991;52.430;10.586;2023-07-08T09:36:42;40.50;24.20
38183;DHT22;23991;52.430;10.586;2023-07-08T09:39:19;40.70;23.90
38183;DHT22;23991;52.430;10.586;2023-07-08T09:41:49;40.90;23.60
38183;DHT22;23991;52.430;10.586;2023-07-08T09:44:25;41.10;22.80
38183;DHT22;23991;52.430;10.586;2023-07-08T09:46:56;41.40;23.30
38183;DHT22;23991;52.430;10.586;2023-07-08T09:49:36;41.30;22.90
38183;DHT22;23991;52.430;10.586;2023-07-08T09:52:03;41.50;23.00
38183;DHT22;23991;52.430;10.586;2023-07-08T09:54:30;41.60;22.20
38183;DHT22;23991;52.430;10.586;2023-07-08T09:57:03;41.80;22.40
38183;DHT22;23991;52.430;10.586;2023-07-08T10:00:26;41.70;22.30
38183;DHT22;23991;52.430;10.586;2023-07-08T10:02:38;41.60;22.50
38183;DHT22;23991;52.430;10.586;2023-07-08T10:05:20;41.80;22.80
38183;DHT22;23991;52.430;10.586;2023-07-08T10:07:48;41.90;22.70
38183;DHT22;23991;52.430;10.586;2023-07-08T10:10:25;42.00;21.50
38183;DHT22;23991;52.430;10.586;2023-07-08T10:13:17;42.10;22.30
38183;DHT22;23991;52.430;10.586;2023-07-08T10:16:15;42.10;21.90
38183;DHT22;23991;52.430;10.586;2023-07-08T10:18:41;42.30;22.10
38183;DHT22;23991;52.430;10.586;2023-07-08T10:26:28;42.60;21.50
38183;DHT22;23991;52.430;10.586;2023-07-08T10:57:02;43.70;18.90
38183;DHT22;23991;52.430;10.586;2023-07-08T10:59:53;43.60;18.10
38183;DHT22;23991;52.430;10.586;2023-07-08T11:05:28;43.90;18.00
38183;DHT22;23991;52.430;10.586;2023-07-08T11:13:21;44.20;17.00
38183;DHT22;23991;52.430;10.586;2023-07-08T11:15:54;44.30;17.50
38183;DHT22;23991;52.430;10.586;2023-07-08T11:18:58;44.40;17.60
38183;DHT22;23991;52.430;10.586;2023-07-08T11:22:05;44.50;17.10
38183;DHT22;23991;52.430;10.586;2023-07-08T11:24:32;44.60;17.00
38183;DHT22;23991;52.430;10.586;2023-07-08T11:27:29;44.60;17.20
38183;DHT22;23991;52.430;10.586;2023-07-08T11:30:26;44.60;17.20
38183;DHT22;23991;52.430;10.586;2023-07-08T11:33:02;44.50;17.20
38183;DHT22;23991;52.430;10.586;2023-07-08T11:38:20;44.70;17.30
38183;DHT22;23991;52.430;10.586;2023-07-08T11:41:13;44.90;17.40
38183;DHT22;23991;52.430;10.586;2023-07-08T11:43:53;45.00;17.30
38183;DHT22;23991;52.430;10.586;2023-07-08T11:46:33;45.00;17.40
38183;DHT22;23991;52.430;10.586;2023-07-08T11:49:09;45.00;16.70
38183;DHT22;23991;52.430;10.586;2023-07-08T11:51:39;45.00;16.60
38183;DHT22;23991;52.430;10.586;2023-07-08T11:54:30;44.80;16.20
38183;DHT22;23991;52.430;10.586;2023-07-08T11:59:23;44.90;16.60
38183;DHT22;23991;52.430;10.586;2023-07-08T12:02:00;45.10;15.60
38183;DHT22;23991;52.430;10.586;2023-07-08T12:04:33;45.20;16.80
38183;DHT22;23991;52.430;10.586;2023-07-08T12:07:10;45.40;16.20
38183;DHT22;23991;52.430;10.586;2023-07-08T12:09:43;45.60;16.10
38183;DHT22;23991;52.430;10.586;2023-07-08T12:12:24;45.60;15.30
38183;DHT22;23991;52.430;10.586;2023-07-08T12:14:53;45.60;16.20
38183;DHT22;23991;52.430;10.586;2023-07-08T12:17:19;45.50;16.10
38183;DHT22;23991;52.430;10.586;2023-07-08T12:19:47;45.40;15.60
38183;DHT22;23991;52.430;10.586;2023-07-08T12:22:13;45.60;16.30
38183;DHT22;23991;52.430;10.586;2023-07-08T12:24:40;45.70;16.20
38183;DHT22;23991;52.430;10.586;2023-07-08T12:27:09;45.70;16.30
38183;DHT22;23991;52.430;10.586;2023-07-08T12:29:35;45.80;15.60
38183;DHT22;23991;52.430;10.586;2023-07-08T12:32:04;45.70;15.40
38183;DHT22;23991;52.430;10.586;2023-07-08T12:34:29;45.80;14.70
38183;DHT22;23991;52.430;10.586;2023-07-08T12:36:55;45.90;15.80
38183;DHT22;23991;52.430;10.586;2023-07-08T12:39:21;46.10;16.00
38183;DHT22;23991;52.430;10.586;2023-07-08T12:41:47;46.00;15.20
38183;DHT22;23991;52.430;10.586;2023-07-08T12:44:23;46.10;15.00
38183;DHT22;23991;52.430;10.586;2023-07-08T12:46:52;46.10;15.20
38183;DHT22;23991;52.430;10.586;2023-07-08T12:49:20;46.10;14.50
38183;DHT22;23991;52.430;10.586;2023-07-08T12:51:46;46.00;14.60
38183;DHT22;23991;52.430;10.586;2023-07-08T12:54:13;46.10;14.30
38183;DHT22;23991;52.430;10.586;2023-07-08T12:56:40;46.00;15.50
38183;DHT22;23991;52.430;10.586;2023-07-08T12:59:08;46.00;15.00
38183;DHT22;23991;52.430;10.586;2023-07-08T13:01:35;46.00;15.10
38183;DHT22;23991;52.430;10.586;2023-07-08T13:04:06;46.10;15.30
38183;DHT22;23991;52.430;10.586;2023-07-08T13:06:35;46.10;15.00
38183;DHT22;23991;52.430;10.586;2023-07-08T13:09:43;45.90;14.70
38183;DHT22;23991;52.430;10.586;2023-07-08T13:12:15;46.00;15.80
38183;DHT22;23991;52.430;10.586;2023-07-08T13:14:42;46.00;14.90
38183;DHT22;23991;52.430;10.586;2023-07-08T13:17:12;46.00;15.10
38183;DHT22;23991;52.430;10.586;2023-07-08T13:19:39;46.00;15.20
38183;DHT22;23991;52.430;10.586;2023-07-08T13:22:05;46.00;14.90
38183;DHT22;23991;52.430;10.586;2023-07-08T13:24:32;46.00;15.00
38183;DHT22;23991;52.430;10.586;2023-07-08T13:26:58;46.10;15.40
38183;DHT22;23991;52.430;10.586;2023-07-08T13:29:24;46.10;15.50
38183;DHT22;23991;52.430;10.586;2023-07-08T13:32:01;46.10;15.70
38183;DHT22;23991;52.430;10.586;2023-07-08T13:34:28;46.10;15.20
38183;DHT22;23991;52.430;10.586;2023-07-08T13:36:54;46.00;14.80
38183;DHT22;23991;52.430;10.586;2023-07-08T13:39:32;46.10;15.10
38183;DHT22;23991;52.430;10.586;2023-07-08T13:41:59;46.10;15.30
38183;DHT22;23991;52.430;10.586;2023-07-08T13:44:45;45.90;14.90
38183;DHT22;23991;52.430;10.586;2023-07-08T13:47:25;45.70;14.50
38183;DHT22;23991;52.430;10.586;2023-07-08T13:50:35;45.70;15.00
38183;DHT22;23991;52.430;10.586;2023-07-08T13:52:55;45.60;14.80
38183;DHT22;23991;52.430;10.586;2023-07-08T13:55:22;45.80;14.60
38183;DHT22;23991;52.430;10.586;2023-07-08T13:58:00;45.60;14.90
38183;DHT22;23991;52.430;10.586;2023-07-08T14:00:28;45.60;14.20
38183;DHT22;23991;52.430;10.586;2023-07-08T14:02:57;45.60;14.90
38183;DHT22;23991;52.430;10.586;2023-07-08T14:05:23;45.60;15.30
38183;DHT22;23991;52.430;10.586;2023-07-08T14:07:49;45.70;15.10
38183;DHT22;23991;52.430;10.586;2023-07-08T14:10:15;45.60;14.90
38183;DHT22;23991;52.430;10.586;2023-07-08T14:12:40;45.60;14.80
38183;DHT22;23991;52.430;10.586;2023-07-08T14:15:07;45.50;15.20
38183;DHT22;23991;52.430;10.586;2023-07-08T14:17:36;45.60;14.40
38183;DHT22;23991;52.430;10.586;2023-07-08T14:20:09;45.70;14.80
38183;DHT22;23991;52.430;10.586;2023-07-08T14:22:38;45.60;15.30
38183;DHT22;23991;52.430;10.586;2023-07-08T14:25:14;45.70;14.50
38183;DHT22;23991;52.430;10.586;2023-07-08T14:27:40;45.70;14.90
38183;DHT22;23991;52.430;10.586;2023-07-08T14:30:09;45.50;14.60
38183;DHT22;23991;52.430;10.586;2023-07-08T14:32:35;45.40;15.10
38183;DHT22;23991;52.430;10.586;2023-07-08T14:35:28;45.50;14.90
38183;DHT22;23991;52.430;10.586;2023-07-08T14:37:55;45.50;14.70
38183;DHT22;23991;52.430;10.586;2023-07-08T14:40:25;45.30;14.80
38183;DHT22;23991;52.430;10.586;2023-07-08T14:43:02;45.20;14.80
38183;DHT22;23991;52.430;10.586;2023-07-08T14:45:29;45.30;15.10
38183;DHT22;23991;52.430;10.586;2023-07-08T14:47:59;45.20;15.60
38183;DHT22;23991;52.430;10.586;2023-07-08T14:50:25;45.30;14.90
38183;DHT22;23991;52.430;10.586;2023-07-08T14:52:54;45.30;14.40
38183;DHT22;23991;52.430;10.586;2023-07-08T14:55:20;45.30;14.80
38183;DHT22;23991;52.430;10.586;2023-07-08T14:57:47;45.10;14.90
38183;DHT22;23991;52.430;10.586;2023-07-08T15:00:18;45.10;14.70
38183;DHT22;23991;52.430;10.586;2023-07-08T15:02:46;45.00;15.30
38183;DHT22;23991;52.430;10.586;2023-07-08T15:05:23;44.80;15.40
38183;DHT22;23991;52.430;10.586;2023-07-08T15:07:50;44.70;15.60
38183;DHT22;23991;52.430;10.586;2023-07-08T15:10:17;44.80;15.30
38183;DHT22;23991;52.430;10.586;2023-07-08T15:12:42;44.60;15.40
38183;DHT22;23991;52.430;10.586;2023-07-08T15:15:23;44.50;15.40
38183;DHT22;23991;52.430;10.586;2023-07-08T15:17:56;44.50;15.10
38183;DHT22;23991;52.430;10.586;2023-07-08T15:20:22;44.20;14.90
38183;DHT22;23991;52.430;10.586;2023-07-08T15:22:51;44.10;15.00
38183;DHT22;23991;52.430;10.586;2023-07-08T15:25:17;44.00;14.60
38183;DHT22;23991;52.430;10.586;2023-07-08T15:27:49;44.00;14.80
38183;DHT22;23991;52.430;10.586;2023-07-08T15:30:18;44.00;16.00
38183;DHT22;23991;52.430;10.586;2023-07-08T15:32:47;43.90;15.50
38183;DHT22;23991;52.430;10.586;2023-07-08T15:35:16;43.90;15.90
38183;DHT22;23991;52.430;10.586;2023-07-08T15:37:43;43.80;15.60
38183;DHT22;23991;52.430;10.586;2023-07-08T15:40:09;43.70;15.50
38183;DHT22;23991;52.430;10.586;2023-07-08T15:42:37;43.60;15.40
38183;DHT22;23991;52.430;10.586;2023-07-08T15:45:34;43.50;15.90
38183;DHT22;23991;52.430;10.586;2023-07-08T15:48:03;43.40;16.50
38183;DHT22;23991;52.430;10.586;2023-07-08T15:50:31;43.20;16.20
38183;DHT22;23991;52.430;10.586;2023-07-08T15:52:57;43.10;16.20
38183;DHT22;23991;52.430;10.586;2023-07-08T15:55:25;42.80;15.80
38183;DHT22;23991;52.430;10.586;2023-07-08T15:57:58;42.60;16.70
38183;DHT22;23991;52.430;10.586;2023-07-08T16:00:27;42.60;16.30
38183;DHT22;23991;52.430;10.586;2023-07-08T16:02:57;42.60;16.90
38183;DHT22;23991;52.430;10.586;2023-07-08T16:05:27;42.60;17.10
38183;DHT22;23991;52.430;10.586;2023-07-08T16:07:54;42.10;18.10
38183;DHT22;23991;52.430;10.586;2023-07-08T16:10:21;42.40;17.50
38183;DHT22;23991;52.430;10.586;2023-07-08T16:12:50;42.20;18.00
38183;DHT22;23991;52.430;10.586;2023-07-08T16:15:28;42.10;17.20
38183;DHT22;23991;52.430;10.586;2023-07-08T16:17:55;42.10;17.20
38183;DHT22;23991;52.430;10.586;2023-07-08T16:20:23;41.70;17.50
38183;DHT22;23991;52.430;10.586;2023-07-08T16:22:49;41.70;17.30
38183;DHT22;23991;52.430;10.586;2023-07-08T16:25:18;41.80;16.90
38183;DHT22;23991;52.430;10.586;2023-07-08T16:27:46;41.40;17.10
38183;DHT22;23991;52.430;10.586;2023-07-08T16:30:15;41.40;18.00
38183;DHT22;23991;52.430;10.586;2023-07-08T16:32:41;41.20;18.40
38183;DHT22;23991;52.430;10.586;2023-07-08T16:35:11;41.10;19.00
38183;DHT22;23991;52.430;10.586;2023-07-08T16:37:40;41.10;18.70